createdAt,value
2019-05-12T00:00:48.429Z,88.7343
2019-05-12T00:01:51.309Z,89.3385
2019-05-12T00:02:54.310Z,89.1051
2019-05-12T00:03:58.062Z,89.2821
2019-05-12T00:05:01.289Z,89.6269
2019-05-12T00:06:04.327Z,89.3278
2019-05-12T00:07:08.703Z,89.5583
2019-05-12T00:08:12.328Z,89.5705
2019-05-12T00:09:15.300Z,89.6590
2019-05-12T00:10:18.306Z,89.2821
2019-05-12T00:11:21.299Z,89.5491
2019-05-12T00:12:24.351Z,89.7032
2019-05-12T00:13:27.888Z,89.5811
2019-05-12T00:14:31.299Z,89.3843
2019-05-12T00:15:34.320Z,89.3980
2019-05-12T00:16:38.437Z,89.4347
2019-05-12T00:17:41.368Z,89.5109
2019-05-12T00:18:43.276Z,89.5979
2019-05-12T00:19:47.912Z,89.7765
2019-05-12T00:20:51.287Z,89.7871
2019-05-12T00:21:54.295Z,90.3548
2019-05-12T00:22:58.143Z,90.4677
2019-05-12T00:24:01.315Z,90.3075
2019-05-12T00:25:04.299Z,89.6132
2019-05-12T00:26:07.929Z,90.0114
2019-05-12T00:27:11.315Z,90.2266
2019-05-12T00:28:14.330Z,90.0572
2019-05-12T00:29:18.459Z,89.9825
2019-05-12T00:30:21.285Z,90.1060
2019-05-12T00:31:24.342Z,90.1808
2019-05-12T00:32:28.185Z,90.0755
2019-05-12T00:33:30.307Z,88.7831
2019-05-12T00:34:32.423Z,88.5512
2019-05-12T00:35:37.849Z,87.7989
2019-05-12T00:36:41.316Z,87.8630
2019-05-12T00:37:44.325Z,88.2292
2019-05-12T00:38:48.495Z,87.7592
2019-05-12T00:39:51.326Z,88.3940
2019-05-12T00:40:54.319Z,88.4443
2019-05-12T00:41:58.641Z,87.9927
2019-05-12T00:43:02.366Z,87.3335
2019-05-12T00:44:05.304Z,85.7450
2019-05-12T00:45:08.338Z,85.5512
2019-05-12T00:46:11.326Z,85.1041
2019-05-12T00:47:14.266Z,85.5390
2019-05-12T00:48:17.823Z,85.8915
2019-05-12T00:49:21.306Z,85.9403
2019-05-12T00:50:24.362Z,85.9953
2019-05-12T00:51:28.845Z,86.6423
2019-05-12T00:52:32.295Z,86.3890
2019-05-12T00:53:40.142Z,85.9831
2019-05-12T00:54:43.318Z,86.5400
2019-05-12T00:55:47.661Z,86.3752
2019-05-12T00:56:49.293Z,86.4500
2019-05-12T00:57:52.341Z,86.3813
2019-05-12T00:58:55.395Z,86.4317
2019-05-12T01:00:00.319Z,85.9236
2019-05-12T01:01:02.264Z,86.2074
2019-05-12T01:02:05.305Z,85.3468
2019-05-12T01:03:08.882Z,84.4068
2019-05-12T01:04:11.316Z,84.2527
2019-05-12T01:05:14.320Z,84.6876
2019-05-12T01:06:17.801Z,85.4002
2019-05-12T01:07:21.301Z,85.5070
2019-05-12T01:08:24.313Z,85.0492
2019-05-12T01:09:28.143Z,84.3977
2019-05-12T01:10:31.301Z,84.5319
2019-05-12T01:11:34.377Z,84.5090
2019-05-12T01:12:38.288Z,84.6601
2019-05-12T01:13:41.309Z,84.3702
2019-05-12T01:14:44.325Z,84.1367
2019-05-12T01:15:48.151Z,83.3829
2019-05-12T01:16:51.291Z,83.8117
2019-05-12T01:17:54.293Z,83.6667
2019-05-12T01:18:58.587Z,83.7903
2019-05-12T01:20:01.311Z,81.9348
2019-05-12T01:21:04.289Z,82.3468
2019-05-12T01:22:08.092Z,81.6297
2019-05-12T01:23:11.329Z,81.5198
2019-05-12T01:24:13.305Z,81.9913
2019-05-12T01:25:17.625Z,81.2543
2019-05-12T01:26:20.330Z,81.0971
2019-05-12T01:27:23.290Z,81.2757
2019-05-12T01:28:27.859Z,80.1312
2019-05-12T01:29:31.288Z,80.7492
2019-05-12T01:30:33.345Z,79.8489
2019-05-12T01:31:37.802Z,80.2457
2019-05-12T01:32:41.308Z,79.5651
2019-05-12T01:33:44.341Z,80.1495
2019-05-12T01:34:48.680Z,80.1129
2019-05-12T01:35:51.321Z,79.7894
2019-05-12T01:36:54.298Z,80.6134
2019-05-12T01:38:01.073Z,80.0305
2019-05-12T01:39:04.309Z,79.9023
2019-05-12T01:40:08.910Z,80.1862
2019-05-12T01:41:12.287Z,79.9939
2019-05-12T01:42:18.063Z,80.6348
2019-05-12T01:43:21.441Z,80.4700
2019-05-12T01:44:24.304Z,80.4852
2019-05-12T01:45:28.836Z,80.1770
2019-05-12T01:46:32.324Z,79.6384
2019-05-12T01:47:35.299Z,79.5819
2019-05-12T01:48:38.298Z,80.0031
2019-05-12T01:49:41.292Z,79.8291
2019-05-12T01:50:44.325Z,80.0137
2019-05-12T01:51:47.637Z,80.2243
2019-05-12T01:52:50.320Z,80.1587
2019-05-12T01:54:07.865Z,80.0504
2019-05-12T01:55:01.319Z,80.4471
2019-05-12T01:56:04.330Z,80.6394
2019-05-12T01:57:08.134Z,80.7721
2019-05-12T01:58:11.308Z,80.4974
2019-05-12T01:59:14.325Z,80.6394
2019-05-12T02:00:18.369Z,80.1907
2019-05-12T02:01:21.306Z,80.4761
2019-05-12T02:02:24.268Z,80.7401
2019-05-12T02:03:28.392Z,80.4425
2019-05-12T02:04:31.308Z,80.5753
2019-05-12T02:05:34.338Z,80.3738
2019-05-12T02:06:38.644Z,80.2472
2019-05-12T02:07:42.297Z,80.6226
2019-05-12T02:08:47.609Z,80.7813
2019-05-12T02:09:51.332Z,80.7813
2019-05-12T02:10:54.271Z,80.5539
2019-05-12T02:11:58.229Z,81.0010
2019-05-12T02:13:01.310Z,80.8743
2019-05-12T02:14:04.328Z,81.0788
2019-05-12T02:15:08.172Z,81.0849
2019-05-12T02:16:11.286Z,81.2497
2019-05-12T02:17:14.323Z,81.1032
2019-05-12T02:18:17.787Z,81.2863
2019-05-12T02:19:21.327Z,81.0986
2019-05-12T02:20:24.278Z,81.1429
2019-05-12T02:21:27.942Z,81.3580
2019-05-12T02:22:31.310Z,80.5219
2019-05-12T02:23:34.314Z,80.7782
2019-05-12T02:24:39.025Z,81.3214
2019-05-12T02:25:42.302Z,81.3458
2019-05-12T02:26:45.296Z,81.5457
2019-05-12T02:27:48.301Z,80.9110
2019-05-12T02:28:51.338Z,81.0285
2019-05-12T02:29:54.304Z,80.9934
2019-05-12T02:30:58.998Z,81.3596
2019-05-12T02:32:02.290Z,81.7075
2019-05-12T02:33:05.219Z,81.9181
2019-05-12T02:34:07.707Z,82.1729
2019-05-12T02:35:10.312Z,81.6709
2019-05-12T02:36:15.088Z,81.5793
2019-05-12T02:37:18.280Z,81.1109
2019-05-12T02:38:21.284Z,80.6760
2019-05-12T02:39:25.009Z,80.8454
2019-05-12T02:40:27.334Z,80.2289
2019-05-12T02:41:30.284Z,79.7940
2019-05-12T02:42:34.926Z,77.7432
2019-05-12T02:43:38.312Z,78.3200
2019-05-12T02:44:43.700Z,78.4375
2019-05-12T02:45:47.286Z,77.5051
2019-05-12T02:46:50.268Z,77.7203
2019-05-12T02:47:54.306Z,77.4319
2019-05-12T02:48:57.295Z,77.3846
2019-05-12T02:50:00.315Z,77.3587
2019-05-12T02:51:05.492Z,77.4533
2019-05-12T02:52:07.317Z,77.6974
2019-05-12T02:53:10.288Z,77.0550
2019-05-12T02:54:14.388Z,75.9991
2019-05-12T02:55:17.296Z,76.6018
2019-05-12T02:56:20.305Z,75.7061
2019-05-12T02:57:25.535Z,76.5530
2019-05-12T02:58:29.276Z,76.6705
2019-05-12T02:59:34.723Z,77.2213
2019-05-12T03:00:38.347Z,76.9512
2019-05-12T03:01:41.294Z,77.2381
2019-05-12T03:02:44.397Z,77.0199
2019-05-12T03:03:47.289Z,76.8551
2019-05-12T03:04:50.376Z,77.2244
2019-05-12T03:05:54.858Z,77.6226
2019-05-12T03:07:02.078Z,77.3846
2019-05-12T03:08:06.289Z,77.4533
2019-05-12T03:09:09.305Z,77.2702
2019-05-12T03:10:14.584Z,77.2015
2019-05-12T03:11:17.334Z,77.4075
2019-05-12T03:12:20.252Z,77.5265
2019-05-12T03:13:25.030Z,77.3480
2019-05-12T03:14:28.294Z,77.3343
2019-05-12T03:15:31.299Z,77.3205
2019-05-12T03:16:35.110Z,77.7020
2019-05-12T03:17:38.279Z,77.2610
2019-05-12T03:18:44.685Z,77.5540
2019-05-12T03:19:48.299Z,76.8505
2019-05-12T03:20:54.079Z,77.0565
2019-05-12T03:21:57.288Z,77.6104
2019-05-12T03:23:00.328Z,77.5051
2019-05-12T03:24:05.697Z,77.7615
2019-05-12T03:25:19.958Z,76.7025
2019-05-12T03:26:17.307Z,77.0703
2019-05-12T03:27:20.320Z,77.2473
2019-05-12T03:28:25.610Z,76.8444
2019-05-12T03:29:29.316Z,77.0779
2019-05-12T03:30:37.135Z,76.9375
2019-05-12T03:31:41.332Z,77.1466
2019-05-12T03:32:47.229Z,77.0108
2019-05-12T03:33:54.249Z,77.3999
2019-05-12T03:34:59.356Z,76.7040
2019-05-12T03:36:08.434Z,77.0321
2019-05-12T03:37:10.329Z,77.2488
2019-05-12T03:38:14.820Z,76.7132
2019-05-12T03:39:18.266Z,76.5148
2019-05-12T03:40:24.693Z,76.9909
2019-05-12T03:41:28.300Z,77.3358
2019-05-12T03:42:31.293Z,77.4899
2019-05-12T03:43:35.136Z,77.5280
2019-05-12T03:44:38.347Z,77.5357
2019-05-12T03:45:44.978Z,77.6974
2019-05-12T03:46:47.288Z,78.1231
2019-05-12T03:47:50.299Z,79.2065
2019-05-12T03:48:55.365Z,79.4675
2019-05-12T03:49:58.340Z,79.8245
2019-05-12T03:51:01.284Z,79.1486
2019-05-12T03:52:05.228Z,79.3072
2019-05-12T03:53:10.839Z,79.1196
2019-05-12T03:54:15.244Z,79.1653
2019-05-12T03:55:31.678Z,78.8129
2019-05-12T03:56:26.471Z,79.2309
2019-05-12T03:57:29.285Z,79.5682
2019-05-12T03:58:34.559Z,80.4166
2019-05-12T03:59:38.293Z,80.9003
2019-05-12T04:00:44.184Z,80.1175
2019-05-12T04:01:46.286Z,79.9588
2019-05-12T04:02:49.295Z,79.5499
2019-05-12T04:03:54.200Z,79.3866
2019-05-12T04:04:57.301Z,79.7375
2019-05-12T04:06:00.329Z,80.1007
2019-05-12T04:07:05.133Z,80.0778
2019-05-12T04:08:08.316Z,80.8789
2019-05-12T04:09:11.292Z,81.0880
2019-05-12T04:10:15.598Z,79.0112
2019-05-12T04:11:19.308Z,79.4781
2019-05-12T04:12:25.302Z,79.7208
2019-05-12T04:13:28.248Z,79.2493
2019-05-12T04:14:34.367Z,78.6130
2019-05-12T04:15:37.313Z,78.9426
2019-05-12T04:16:40.335Z,78.2330
2019-05-12T04:17:45.231Z,78.4939
2019-05-12T04:18:48.289Z,78.4390
2019-05-12T04:19:51.347Z,77.5906
2019-05-12T04:20:54.587Z,78.0484
2019-05-12T04:21:57.349Z,78.6175
2019-05-12T04:23:00.279Z,78.7045
2019-05-12T04:24:05.556Z,78.2193
2019-05-12T04:25:08.328Z,78.7671
2019-05-12T04:26:15.736Z,79.2264
2019-05-12T04:27:19.266Z,79.1745
2019-05-12T04:28:24.559Z,79.5682
2019-05-12T04:29:27.286Z,80.1236
2019-05-12T04:30:30.356Z,80.3708
2019-05-12T04:31:34.759Z,80.6134
2019-05-12T04:32:38.297Z,80.9323
2019-05-12T04:33:41.307Z,81.4221
2019-05-12T04:34:44.732Z,81.0574
2019-05-12T04:35:48.331Z,81.5457
2019-05-12T04:36:51.320Z,81.2757
2019-05-12T04:37:55.290Z,81.5976
2019-05-12T04:38:58.289Z,80.6302
2019-05-12T04:40:01.316Z,80.6500
2019-05-12T04:41:05.863Z,80.6302
2019-05-12T04:42:09.265Z,79.8245
2019-05-12T04:43:14.560Z,79.1699
2019-05-12T04:44:17.282Z,79.8154
2019-05-12T04:45:20.323Z,79.6048
2019-05-12T04:46:25.284Z,79.4919
2019-05-12T04:47:27.310Z,79.0295
2019-05-12T04:48:30.291Z,79.7925
2019-05-12T04:49:34.626Z,79.6185
2019-05-12T04:50:37.325Z,78.6587
2019-05-12T04:51:40.279Z,78.5718
2019-05-12T04:52:44.648Z,79.7986
2019-05-12T04:53:48.272Z,80.0946
2019-05-12T04:54:51.292Z,81.0101
2019-05-12T04:56:09.662Z,80.9644
2019-05-12T04:57:04.178Z,79.9130
2019-05-12T04:58:07.286Z,79.6368
2019-05-12T04:59:10.301Z,78.2284
2019-05-12T05:00:15.860Z,78.8602
2019-05-12T05:01:19.287Z,79.1150
2019-05-12T05:02:25.060Z,78.5016
2019-05-12T05:03:28.300Z,78.3734
2019-05-12T05:04:31.320Z,76.7391
2019-05-12T05:05:35.324Z,76.8673
2019-05-12T05:06:39.295Z,76.7300
2019-05-12T05:07:44.834Z,77.1801
2019-05-12T05:08:48.295Z,76.6079
2019-05-12T05:09:51.326Z,77.0367
2019-05-12T05:10:54.885Z,77.0092
2019-05-12T05:11:58.299Z,76.5209
2019-05-12T05:13:01.290Z,76.0433
2019-05-12T05:14:04.460Z,76.2737
2019-05-12T05:15:07.326Z,76.5484
2019-05-12T05:16:10.316Z,76.1822
2019-05-12T05:17:15.072Z,75.5352
2019-05-12T05:18:18.288Z,74.8928
2019-05-12T05:19:21.264Z,74.8348
2019-05-12T05:20:24.349Z,75.0820
2019-05-12T05:21:27.283Z,74.3770
2019-05-12T05:22:30.254Z,74.0429
2019-05-12T05:23:33.588Z,74.0688
2019-05-12T05:24:35.304Z,74.3816
2019-05-12T05:25:38.358Z,73.7682
2019-05-12T05:26:43.448Z,74.7066
2019-05-12T05:27:46.312Z,74.2977
2019-05-12T05:28:49.268Z,74.1649
2019-05-12T05:29:54.184Z,73.7575
2019-05-12T05:30:57.287Z,73.6935
2019-05-12T05:32:00.289Z,73.4890
2019-05-12T05:33:04.490Z,73.8308
2019-05-12T05:34:08.278Z,74.3313
2019-05-12T05:35:13.301Z,74.1573
2019-05-12T05:36:19.746Z,74.0749
2019-05-12T05:37:23.921Z,74.5098
2019-05-12T05:38:27.290Z,74.7509
2019-05-12T05:39:30.300Z,73.9696
2019-05-12T05:40:35.359Z,73.5836
2019-05-12T05:41:40.337Z,72.8283
2019-05-12T05:42:47.285Z,72.5597
2019-05-12T05:43:54.278Z,72.7092
2019-05-12T05:44:57.269Z,72.2026
2019-05-12T05:46:07.048Z,72.1920
2019-05-12T05:47:10.337Z,72.1386
2019-05-12T05:48:13.705Z,71.9951
2019-05-12T05:49:16.301Z,71.9265
2019-05-12T05:50:25.106Z,71.4382
2019-05-12T05:51:27.332Z,71.3237
2019-05-12T05:52:33.062Z,70.7042
2019-05-12T05:53:38.306Z,71.1665
2019-05-12T05:54:41.271Z,71.6106
2019-05-12T05:55:44.342Z,71.9081
2019-05-12T05:56:57.498Z,72.9168
2019-05-12T05:57:59.708Z,72.4544
2019-05-12T05:59:05.337Z,73.1579
2019-05-12T06:00:17.320Z,73.0800
2019-05-12T06:01:16.355Z,73.1319
2019-05-12T06:02:24.440Z,73.1914
2019-05-12T06:03:28.054Z,73.0724
2019-05-12T06:04:31.298Z,72.7291
2019-05-12T06:05:38.544Z,72.6040
2019-05-12T06:06:50.405Z,71.8166
2019-05-12T06:07:50.304Z,71.3787
2019-05-12T06:08:54.496Z,71.4244
2019-05-12T06:09:57.317Z,70.9255
2019-05-12T06:11:00.300Z,70.6722
2019-05-12T06:12:05.280Z,71.2993
2019-05-12T06:13:11.253Z,71.4885
2019-05-12T06:14:16.276Z,72.1508
2019-05-12T06:15:19.285Z,72.9290
2019-05-12T06:16:25.088Z,73.2448
2019-05-12T06:17:28.290Z,73.6080
2019-05-12T06:18:33.305Z,73.5164
2019-05-12T06:19:36.306Z,73.4112
2019-05-12T06:20:39.268Z,72.2652
2019-05-12T06:21:44.055Z,73.0983
2019-05-12T06:22:48.603Z,72.1889
2019-05-12T06:23:55.315Z,72.1874
2019-05-12T06:24:59.004Z,72.1889
2019-05-12T06:26:04.352Z,71.7342
2019-05-12T06:27:15.112Z,71.4549
2019-05-12T06:28:16.264Z,71.7586
2019-05-12T06:29:20.789Z,71.5282
2019-05-12T06:30:25.288Z,71.5023
2019-05-12T06:31:29.806Z,72.3659
2019-05-12T06:32:33.675Z,72.2377
2019-05-12T06:33:36.507Z,71.7708
2019-05-12T06:34:39.299Z,71.7708
2019-05-12T06:35:45.124Z,71.7586
2019-05-12T06:36:48.335Z,72.1233
2019-05-12T06:38:00.185Z,71.9448
2019-05-12T06:38:59.297Z,71.5190
2019-05-12T06:40:03.589Z,71.9646
2019-05-12T06:41:06.333Z,71.8898
2019-05-12T06:42:14.134Z,71.1940
2019-05-12T06:43:17.335Z,70.9712
2019-05-12T06:44:20.272Z,70.5180
2019-05-12T06:45:23.530Z,70.9834
2019-05-12T06:46:26.300Z,72.0104
2019-05-12T06:47:28.327Z,72.1737
2019-05-12T06:48:33.210Z,72.6513
2019-05-12T06:49:36.309Z,72.4392
2019-05-12T06:50:39.567Z,72.7413
2019-05-12T06:51:44.295Z,72.4498
2019-05-12T06:52:49.123Z,72.6284
2019-05-12T06:53:53.463Z,72.7153
2019-05-12T06:54:56.810Z,72.0043
2019-05-12T06:56:00.318Z,71.7067
2019-05-12T06:57:18.548Z,71.9966
2019-05-12T06:58:13.811Z,71.8578
2019-05-12T06:59:17.338Z,71.8395
2019-05-12T07:00:22.378Z,71.3924
2019-05-12T07:01:28.315Z,70.7561
2019-05-12T07:02:37.188Z,70.9148
2019-05-12T07:03:39.281Z,70.8324
2019-05-12T07:04:47.498Z,71.4412
2019-05-12T07:05:50.270Z,71.2825
2019-05-12T07:06:56.086Z,71.2856
2019-05-12T07:08:04.000Z,70.9239
2019-05-12T07:09:09.864Z,70.6813
2019-05-12T07:10:35.172Z,70.1610
2019-05-12T07:11:24.292Z,69.4469
2019-05-12T07:12:32.781Z,70.1320
2019-05-12T07:13:34.362Z,70.4250
2019-05-12T07:14:37.328Z,70.5730
2019-05-12T07:15:40.730Z,71.5190
2019-05-12T07:16:44.296Z,72.2301
2019-05-12T07:17:49.738Z,72.1065
2019-05-12T07:18:54.176Z,71.8349
2019-05-12T07:19:58.363Z,71.5099
2019-05-12T07:21:01.334Z,70.4662
2019-05-12T07:22:18.844Z,70.8659
2019-05-12T07:23:14.261Z,71.0719
2019-05-12T07:24:17.330Z,70.7744
2019-05-12T07:25:22.933Z,70.9529
2019-05-12T07:26:28.308Z,71.0979
2019-05-12T07:27:36.814Z,70.7423
2019-05-12T07:28:40.471Z,70.6264
2019-05-12T07:29:43.667Z,70.0511
2019-05-12T07:30:46.294Z,70.1381
2019-05-12T07:31:49.294Z,70.1152
2019-05-12T07:32:59.379Z,71.1131
2019-05-12T07:34:00.285Z,71.2276
2019-05-12T07:35:03.913Z,70.7011
2019-05-12T07:36:07.270Z,69.4148
2019-05-12T07:37:10.283Z,69.8390
2019-05-12T07:38:20.970Z,70.3975
2019-05-12T07:39:21.299Z,70.7881
2019-05-12T07:40:29.719Z,69.2088
2019-05-12T07:41:34.201Z,70.6126
2019-05-12T07:42:39.536Z,69.3812
2019-05-12T07:43:44.357Z,69.5003
2019-05-12T07:44:47.322Z,69.9596
2019-05-12T07:45:53.979Z,70.4753
2019-05-12T07:46:58.316Z,69.6483
2019-05-12T07:48:08.144Z,69.5552
2019-05-12T07:49:09.304Z,69.8528
2019-05-12T07:50:16.192Z,70.6188
2019-05-12T07:51:20.306Z,69.7612
2019-05-12T07:52:24.235Z,69.6834
2019-05-12T07:53:27.319Z,69.2210
2019-05-12T07:54:35.344Z,69.3645
2019-05-12T07:55:39.856Z,69.3767
2019-05-12T07:56:46.300Z,69.4148
2019-05-12T07:57:55.368Z,69.6529
2019-05-12T07:58:57.344Z,67.7394
2019-05-12T08:00:00.294Z,67.0695
2019-05-12T08:01:07.662Z,67.4556
2019-05-12T08:02:10.280Z,67.6463
2019-05-12T08:03:19.005Z,67.5059
2019-05-12T08:04:21.303Z,66.9551
2019-05-12T08:05:24.326Z,66.9291
2019-05-12T08:06:31.870Z,67.6066
2019-05-12T08:07:35.307Z,66.5156
2019-05-12T08:08:41.884Z,67.0619
2019-05-12T08:09:46.326Z,67.4006
2019-05-12T08:10:51.503Z,66.9337
2019-05-12T08:11:56.342Z,65.8534
2019-05-12T08:13:00.883Z,66.1921
2019-05-12T08:14:04.288Z,63.9567
2019-05-12T08:15:09.596Z,63.7827
2019-05-12T08:16:14.171Z,65.1331
2019-05-12T08:17:19.658Z,65.4353
2019-05-12T08:18:24.616Z,64.7944
2019-05-12T08:19:28.575Z,65.5329
2019-05-12T08:20:31.305Z,65.0416
2019-05-12T08:21:34.757Z,66.0945
2019-05-12T08:22:43.609Z,63.5966
2019-05-12T08:23:47.308Z,65.2567
2019-05-12T08:24:50.312Z,65.5604
2019-05-12T08:25:54.025Z,63.9933
2019-05-12T08:27:03.332Z,64.4800
2019-05-12T08:28:14.968Z,63.8056
2019-05-12T08:29:16.889Z,63.5325
2019-05-12T08:30:21.271Z,66.1006
2019-05-12T08:31:31.894Z,63.6378
2019-05-12T08:32:33.869Z,63.2654
2019-05-12T08:33:37.291Z,62.9358
2019-05-12T08:34:40.311Z,62.2583
2019-05-12T08:35:43.902Z,60.1999
2019-05-12T08:36:53.276Z,61.3901
2019-05-12T08:37:55.307Z,64.2130
2019-05-12T08:38:58.316Z,63.0549
2019-05-12T08:40:04.366Z,62.6444
2019-05-12T08:41:09.285Z,62.3957
2019-05-12T08:42:14.377Z,61.8967
2019-05-12T08:43:17.291Z,61.5442
2019-05-12T08:44:24.842Z,62.0447
2019-05-12T08:45:34.002Z,60.0259
2019-05-12T08:46:36.292Z,56.9818
2019-05-12T08:47:39.365Z,58.2116
2019-05-12T08:48:44.390Z,56.7483
2019-05-12T08:49:55.156Z,56.9848
2019-05-12T08:50:56.315Z,57.5540
2019-05-12T08:52:00.360Z,55.6451
2019-05-12T08:53:04.704Z,55.8999
2019-05-12T08:54:08.501Z,57.2503
2019-05-12T08:55:13.856Z,56.6278
2019-05-12T08:56:22.886Z,57.7325
2019-05-12T08:57:34.827Z,57.9873
2019-05-12T08:58:47.301Z,60.1892
2019-05-12T08:59:44.119Z,59.5071
2019-05-12T09:00:50.307Z,59.0311
2019-05-12T09:01:54.297Z,59.3256
2019-05-12T09:02:57.327Z,58.7518
2019-05-12T09:04:05.423Z,59.1836
2019-05-12T09:05:08.299Z,59.3561
2019-05-12T09:06:17.919Z,57.8424
2019-05-12T09:07:19.304Z,58.6068
2019-05-12T09:08:24.218Z,58.7930
2019-05-12T09:09:27.271Z,58.2254
2019-05-12T09:10:30.326Z,57.6074
2019-05-12T09:11:33.688Z,57.2976
2019-05-12T09:12:37.303Z,56.1532
2019-05-12T09:13:40.340Z,56.2295
2019-05-12T09:14:46.161Z,56.3668
2019-05-12T09:15:49.343Z,57.0642
2019-05-12T09:16:53.670Z,57.8500
2019-05-12T09:18:00.370Z,58.0072
2019-05-12T09:19:04.883Z,56.3851
2019-05-12T09:20:08.656Z,57.3068
2019-05-12T09:21:14.054Z,55.7275
2019-05-12T09:22:20.836Z,57.9919
2019-05-12T09:23:24.350Z,56.7758
2019-05-12T09:24:27.551Z,54.9569
2019-05-12T09:25:30.357Z,55.6359
2019-05-12T09:26:34.438Z,55.0759
2019-05-12T09:27:39.452Z,55.2682
2019-05-12T09:28:50.086Z,53.3318
2019-05-12T09:29:54.014Z,49.1447
2019-05-12T09:30:57.403Z,50.2968
2019-05-12T09:32:05.467Z,52.6177
2019-05-12T09:33:08.331Z,55.4009
2019-05-12T09:34:13.482Z,54.6426
2019-05-12T09:35:19.307Z,55.3292
2019-05-12T09:36:24.278Z,55.6130
2019-05-12T09:37:30.909Z,54.5098
2019-05-12T09:38:35.331Z,53.9452
2019-05-12T09:39:42.454Z,54.4137
2019-05-12T09:40:46.329Z,55.0072
2019-05-12T09:41:52.583Z,54.9630
2019-05-12T09:43:00.250Z,55.2361
2019-05-12T09:44:05.311Z,53.2372
2019-05-12T09:45:10.504Z,54.5281
2019-05-12T09:46:14.518Z,55.7626
2019-05-12T09:47:22.948Z,56.5225
2019-05-12T09:48:25.338Z,56.8765
2019-05-12T09:49:38.451Z,56.2295
2019-05-12T09:50:36.310Z,56.2707
2019-05-12T09:51:45.649Z,55.4025
2019-05-12T09:52:50.186Z,55.9640
2019-05-12T09:53:55.562Z,55.0301
2019-05-12T09:54:59.307Z,54.4762
2019-05-12T09:56:04.349Z,53.9269
2019-05-12T09:57:07.363Z,53.2418
2019-05-12T09:58:13.976Z,54.8669
2019-05-12T09:59:22.568Z,53.7591
2019-05-12T10:00:25.334Z,51.8898
2019-05-12T10:01:29.267Z,52.8466
2019-05-12T10:02:36.336Z,51.1070
2019-05-12T10:03:40.154Z,52.4727
2019-05-12T10:04:43.765Z,51.5602
2019-05-12T10:05:46.311Z,50.5592
2019-05-12T10:06:49.355Z,53.3639
2019-05-12T10:07:53.623Z,53.8872
2019-05-12T10:08:56.308Z,52.6314
2019-05-12T10:09:59.173Z,54.1054
2019-05-12T10:11:03.723Z,51.0308
2019-05-12T10:12:07.321Z,51.8135
2019-05-12T10:13:10.305Z,50.5867
2019-05-12T10:14:13.975Z,51.7067
2019-05-12T10:15:18.710Z,51.1589
2019-05-12T10:16:25.304Z,50.4814
2019-05-12T10:17:30.135Z,52.1294
2019-05-12T10:18:33.646Z,52.4529
2019-05-12T10:19:37.314Z,52.1462
2019-05-12T10:20:40.283Z,50.9209
2019-05-12T10:21:44.013Z,50.7408
2019-05-12T10:22:47.328Z,51.9875
2019-05-12T10:23:51.517Z,52.3476
2019-05-12T10:24:58.701Z,52.3934
2019-05-12T10:26:09.471Z,50.9194
2019-05-12T10:27:10.317Z,51.7800
2019-05-12T10:28:15.898Z,49.9352
2019-05-12T10:29:20.804Z,49.2805
2019-05-12T10:30:24.289Z,49.6422
2019-05-12T10:31:29.529Z,50.4479
2019-05-12T10:32:35.315Z,49.5735
2019-05-12T10:33:38.318Z,50.4112
2019-05-12T10:34:41.290Z,51.5709
2019-05-12T10:35:44.315Z,50.7607
2019-05-12T10:36:49.220Z,51.5526
2019-05-12T10:37:53.745Z,52.6040
2019-05-12T10:38:57.326Z,51.5511
2019-05-12T10:40:00.340Z,51.5663
2019-05-12T10:41:04.319Z,51.7815
2019-05-12T10:42:07.292Z,52.2698
2019-05-12T10:43:10.363Z,52.0653
2019-05-12T10:44:13.931Z,52.2698
2019-05-12T10:45:20.605Z,51.8715
2019-05-12T10:46:28.627Z,53.7530
2019-05-12T10:47:34.262Z,51.7617
2019-05-12T10:48:38.357Z,52.0470
2019-05-12T10:49:41.310Z,51.2734
2019-05-12T10:50:44.248Z,52.1385
2019-05-12T10:51:47.778Z,51.9356
2019-05-12T10:52:53.519Z,51.5023
2019-05-12T10:54:01.965Z,51.6518
2019-05-12T10:55:04.515Z,53.0205
2019-05-12T10:56:06.288Z,53.1456
2019-05-12T10:57:09.363Z,52.9107
2019-05-12T10:58:14.346Z,52.7230
2019-05-12T10:59:29.167Z,52.7825
2019-05-12T11:00:26.854Z,52.7382
2019-05-12T11:01:30.292Z,51.0033
2019-05-12T11:02:33.680Z,51.2688
2019-05-12T11:03:37.311Z,51.6762
2019-05-12T11:04:41.281Z,52.3491
2019-05-12T11:05:46.354Z,50.8690
2019-05-12T11:06:49.328Z,51.5434
2019-05-12T11:07:53.978Z,51.6014
2019-05-12T11:08:57.334Z,50.9392
2019-05-12T11:10:03.536Z,48.8106
2019-05-12T11:11:08.325Z,49.7063
2019-05-12T11:12:13.663Z,50.6371
2019-05-12T11:13:18.109Z,48.0995
2019-05-12T11:14:26.320Z,47.6646
2019-05-12T11:15:29.297Z,49.9825
2019-05-12T11:16:34.453Z,49.5598
2019-05-12T11:17:40.174Z,50.4173
2019-05-12T11:18:43.731Z,47.1763
2019-05-12T11:19:51.335Z,48.0308
2019-05-12T11:20:55.306Z,48.2734
2019-05-12T11:21:58.280Z,47.0191
2019-05-12T11:23:03.298Z,46.9154
2019-05-12T11:24:07.297Z,46.8269
2019-05-12T11:25:10.389Z,47.8859
2019-05-12T11:26:14.184Z,47.0100
2019-05-12T11:27:17.332Z,47.2023
2019-05-12T11:28:20.326Z,47.2816
2019-05-12T11:29:23.641Z,46.2562
2019-05-12T11:30:27.339Z,47.4098
2019-05-12T11:31:30.281Z,50.0313
2019-05-12T11:32:34.928Z,48.7678
2019-05-12T11:33:43.471Z,49.2943
2019-05-12T11:34:47.308Z,49.7627
2019-05-12T11:35:50.343Z,50.9331
2019-05-12T11:36:54.532Z,49.2119
2019-05-12T11:37:56.279Z,49.2668
2019-05-12T11:38:59.298Z,48.1727
2019-05-12T11:40:04.272Z,48.4794
2019-05-12T11:41:09.908Z,49.6483
2019-05-12T11:42:15.286Z,49.0837
2019-05-12T11:43:18.318Z,47.9118
2019-05-12T11:44:23.177Z,50.3441
2019-05-12T11:45:26.371Z,50.8980
2019-05-12T11:46:29.265Z,50.4906
2019-05-12T11:47:35.572Z,50.5577
2019-05-12T11:48:45.184Z,51.3405
2019-05-12T11:49:48.281Z,51.4916
2019-05-12T11:50:51.472Z,51.2078
2019-05-12T11:51:54.495Z,51.5160
2019-05-12T11:52:57.300Z,50.9880
2019-05-12T11:54:03.414Z,51.2535
2019-05-12T11:55:08.295Z,51.7403
2019-05-12T11:56:10.332Z,50.3487
2019-05-12T11:57:13.310Z,50.2510
2019-05-12T11:58:16.338Z,51.5602
2019-05-12T11:59:19.305Z,50.1640
2019-05-12T12:00:24.197Z,50.2342
2019-05-12T12:01:27.335Z,46.9596
2019-05-12T12:02:30.630Z,47.5090
2019-05-12T12:03:34.290Z,45.7603
2019-05-12T12:04:37.315Z,46.1082
2019-05-12T12:05:40.285Z,46.7918
2019-05-12T12:06:43.811Z,44.9928
2019-05-12T12:07:51.379Z,44.0360
2019-05-12T12:08:54.298Z,44.7868
2019-05-12T12:09:59.444Z,44.4099
2019-05-12T12:11:03.975Z,42.0996
2019-05-12T12:12:07.539Z,42.6520
2019-05-12T12:13:10.281Z,43.3722
2019-05-12T12:14:14.269Z,42.9374
2019-05-12T12:15:20.472Z,41.3581
2019-05-12T12:16:25.334Z,42.3194
2019-05-12T12:17:31.017Z,45.5970
2019-05-12T12:18:35.312Z,39.5041
2019-05-12T12:19:43.851Z,42.8824
2019-05-12T12:20:46.322Z,40.5386
2019-05-12T12:21:50.155Z,40.6424
2019-05-12T12:22:54.259Z,42.6841
2019-05-12T12:23:57.320Z,41.6403
2019-05-12T12:25:03.186Z,40.8713
2019-05-12T12:26:08.324Z,42.1866
2019-05-12T12:27:11.316Z,46.2837
2019-05-12T12:28:14.366Z,46.5797
2019-05-12T12:29:17.289Z,47.1580
2019-05-12T12:30:20.315Z,47.5380
2019-05-12T12:31:23.832Z,45.3315
2019-05-12T12:32:27.343Z,46.3050
2019-05-12T12:33:31.130Z,46.6087
2019-05-12T12:34:38.320Z,46.8513
2019-05-12T12:35:41.372Z,45.8854
2019-05-12T12:36:44.260Z,45.0431
2019-05-12T12:37:47.343Z,47.5776
2019-05-12T12:38:50.296Z,46.3462
2019-05-12T12:39:53.662Z,47.4922
2019-05-12T12:40:57.283Z,47.1214
2019-05-12T12:42:00.897Z,49.5369
2019-05-12T12:43:04.333Z,48.1376
2019-05-12T12:44:07.273Z,47.9683
2019-05-12T12:45:10.346Z,46.3340
2019-05-12T12:46:18.178Z,45.1530
2019-05-12T12:47:23.691Z,41.4908
2019-05-12T12:48:29.741Z,39.7330
2019-05-12T12:49:33.947Z,42.4338
2019-05-12T12:50:37.283Z,43.2212
2019-05-12T12:51:40.310Z,43.6316
2019-05-12T12:52:44.855Z,46.8330
2019-05-12T12:53:51.358Z,44.7166
2019-05-12T12:54:54.407Z,46.1585
2019-05-12T12:55:58.672Z,46.7994
2019-05-12T12:57:06.322Z,45.9220